sensor_id;sensor_type;location;lat;lon;timestamp;pressure;altitude;pressure_sealevel;temperature;humidity
9335;BME280;4706;41.844;26.082;2023-01-16T00:01:19;100997.38;;;8.88;96.88
9335;BME280;4706;41.844;26.082;2023-01-16T00:03:45;100986.94;;;8.85;96.84
9335;BME280;4706;41.844;26.082;2023-01-16T00:06:11;100982.84;;;8.82;97.19
9335;BME280;4706;41.844;26.082;2023-01-16T00:08:36;100986.69;;;8.76;97.26
9335;BME280;4706;41.844;26.082;2023-01-16T00:11:02;100991.91;;;8.78;97.52
9335;BME280;4706;41.844;26.082;2023-01-16T00:13:27;100981.50;;;8.74;97.61
9335;BME280;4706;41.844;26.082;2023-01-16T00:15:53;100985.56;;;8.82;97.25
9335;BME280;4706;41.844;26.082;2023-01-16T00:18:18;100982.56;;;8.79;97.23
9335;BME280;4706;41.844;26.082;2023-01-16T00:20:46;100973.03;;;8.66;97.52
9335;BME280;4706;41.844;26.082;2023-01-16T00:23:12;100974.69;;;8.62;97.53
9335;BME280;4706;41.844;26.082;2023-01-16T00:25:40;100991.41;;;8.65;97.67
9335;BME280;4706;41.844;26.082;2023-01-16T00:28:10;100968.66;;;8.49;97.41
9335;BME280;4706;41.844;26.082;2023-01-16T00:30:36;100976.88;;;8.55;97.01
9335;BME280;4706;41.844;26.082;2023-01-16T00:33:03;100974.13;;;8.55;96.81
9335;BME280;4706;41.844;26.082;2023-01-16T00:35:29;100974.41;;;8.58;95.91
9335;BME280;4706;41.844;26.082;2023-01-16T00:37:54;100967.31;;;8.47;97.43
9335;BME280;4706;41.844;26.082;2023-01-16T00:40:20;100973.84;;;8.46;97.79
9335;BME280;4706;41.844;26.082;2023-01-16T00:42:46;100973.88;;;8.41;97.93
9335;BME280;4706;41.844;26.082;2023-01-16T00:45:11;100962.63;;;8.42;96.82
9335;BME280;4706;41.844;26.082;2023-01-16T00:47:37;100954.13;;;8.28;97.60
9335;BME280;4706;41.844;26.082;2023-01-16T00:50:03;100962.66;;;8.37;98.53
9335;BME280;4706;41.844;26.082;2023-01-16T00:52:29;100958.25;;;8.41;98.51
9335;BME280;4706;41.844;26.082;2023-01-16T00:54:54;100953.88;;;8.40;98.74
9335;BME280;4706;41.844;26.082;2023-01-16T00:57:20;100964.28;;;8.38;98.64
9335;BME280;4706;41.844;26.082;2023-01-16T00:59:45;100958.78;;;8.38;98.66
9335;BME280;4706;41.844;26.082;2023-01-16T01:02:11;100958.22;;;8.31;99.10
9335;BME280;4706;41.844;26.082;2023-01-16T01:04:36;100952.50;;;8.43;98.72
9335;BME280;4706;41.844;26.082;2023-01-16T01:07:02;100939.06;;;8.46;98.40
9335;BME280;4706;41.844;26.082;2023-01-16T01:09:27;100951.13;;;8.45;98.75
9335;BME280;4706;41.844;26.082;2023-01-16T01:11:53;100943.72;;;8.46;98.72
9335;BME280;4706;41.844;26.082;2023-01-16T01:14:20;100936.56;;;8.55;98.20
9335;BME280;4706;41.844;26.082;2023-01-16T01:16:46;100948.88;;;8.63;97.72
9335;BME280;4706;41.844;26.082;2023-01-16T01:19:11;100947.81;;;8.54;98.04
9335;BME280;4706;41.844;26.082;2023-01-16T01:21:37;100936.28;;;8.57;98.17
9335;BME280;4706;41.844;26.082;2023-01-16T01:24:02;100945.34;;;8.52;98.14
9335;BME280;4706;41.844;26.082;2023-01-16T01:26:28;100942.59;;;8.57;98.19
9335;BME280;4706;41.844;26.082;2023-01-16T01:28:53;100937.91;;;8.63;98.04
9335;BME280;4706;41.844;26.082;2023-01-16T01:31:18;100942.56;;;8.67;97.90
9335;BME280;4706;41.844;26.082;2023-01-16T01:33:44;100938.72;;;8.68;97.73
9335;BME280;4706;41.844;26.082;2023-01-16T01:36:09;100935.41;;;8.71;97.73
9335;BME280;4706;41.844;26.082;2023-01-16T01:38:35;100938.75;;;8.63;97.82
9335;BME280;4706;41.844;26.082;2023-01-16T01:41:01;100937.38;;;8.61;97.83
9335;BME280;4706;41.844;26.082;2023-01-16T01:43:51;100939.03;;;8.62;97.65
9335;BME280;4706;41.844;26.082;2023-01-16T01:49:28;100916.50;;;8.65;97.53
9335;BME280;4706;41.844;26.082;2023-01-16T01:51:57;100919.84;;;8.62;97.55
9335;BME280;4706;41.844;26.082;2023-01-16T01:54:29;100916.00;;;8.63;97.60
9335;BME280;4706;41.844;26.082;2023-01-16T01:57:00;100915.97;;;8.68;97.17
9335;BME280;4706;41.844;26.082;2023-01-16T01:59:32;100908.56;;;8.63;97.57
9335;BME280;4706;41.844;26.082;2023-01-16T02:02:00;100908.28;;;8.70;97.07
9335;BME280;4706;41.844;26.082;2023-01-16T02:04:31;100902.50;;;8.71;96.66
9335;BME280;4706;41.844;26.082;2023-01-16T02:07:08;100901.44;;;8.67;96.58
9335;BME280;4706;41.844;26.082;2023-01-16T02:09:35;100884.19;;;8.57;96.97
9335;BME280;4706;41.844;26.082;2023-01-16T02:12:10;100905.56;;;8.60;96.84
9335;BME280;4706;41.844;26.082;2023-01-16T02:14:41;100894.34;;;8.56;96.36
9335;BME280;4706;41.844;26.082;2023-01-16T02:17:13;100895.16;;;8.57;96.02
9335;BME280;4706;41.844;26.082;2023-01-16T02:36:29;100888.63;;;8.32;96.88
9335;BME280;4706;41.844;26.082;2023-01-16T02:42:29;100881.78;;;8.30;96.96
9335;BME280;4706;41.844;26.082;2023-01-16T02:52:54;100872.19;;;8.32;96.10
9335;BME280;4706;41.844;26.082;2023-01-16T02:55:32;100862.03;;;8.33;96.20
9335;BME280;4706;41.844;26.082;2023-01-16T02:58:02;100868.34;;;8.33;95.93
9335;BME280;4706;41.844;26.082;2023-01-16T03:00:30;100868.91;;;8.35;95.90
9335;BME280;4706;41.844;26.082;2023-01-16T03:02:55;100862.03;;;8.33;95.83
9335;BME280;4706;41.844;26.082;2023-01-16T03:05:22;100868.91;;;8.30;96.27
9335;BME280;4706;41.844;26.082;2023-01-16T03:10:47;100872.44;;;8.31;96.34
9335;BME280;4706;41.844;26.082;2023-01-16T03:18:50;100873.03;;;8.17;96.90
9335;BME280;4706;41.844;26.082;2023-01-16T03:24:25;100871.97;;;8.13;96.64
9335;BME280;4706;41.844;26.082;2023-01-16T03:27:20;100879.38;;;8.13;96.88
9335;BME280;4706;41.844;26.082;2023-01-16T03:32:57;100882.88;;;8.23;97.27
9335;BME280;4706;41.844;26.082;2023-01-16T03:36:10;100877.72;;;8.17;97.02
9335;BME280;4706;41.844;26.082;2023-01-16T03:38:39;100879.88;;;8.15;97.33
9335;BME280;4706;41.844;26.082;2023-01-16T03:41:10;100879.09;;;8.04;98.05
9335;BME280;4706;41.844;26.082;2023-01-16T03:43:38;100867.84;;;8.00;98.25
9335;BME280;4706;41.844;26.082;2023-01-16T03:46:37;100876.63;;;8.02;97.71
9335;BME280;4706;41.844;26.082;2023-01-16T03:49:05;100869.50;;;7.96;98.63
9335;BME280;4706;41.844;26.082;2023-01-16T03:51:37;100868.44;;;7.97;98.48
9335;BME280;4706;41.844;26.082;2023-01-16T03:56:36;100868.94;;;8.15;97.93
9335;BME280;4706;41.844;26.082;2023-01-16T03:59:02;100865.34;;;8.19;98.26
9335;BME280;4706;41.844;26.082;2023-01-16T04:02:02;100860.19;;;8.13;98.29
9335;BME280;4706;41.844;26.082;2023-01-16T04:04:36;100850.28;;;8.22;97.88
9335;BME280;4706;41.844;26.082;2023-01-16T04:07:09;100851.34;;;8.36;97.08
9335;BME280;4706;41.844;26.082;2023-01-16T04:09:43;100850.53;;;8.36;97.17
9335;BME280;4706;41.844;26.082;2023-01-16T04:12:10;100852.16;;;8.37;97.10
9335;BME280;4706;41.844;26.082;2023-01-16T04:14:38;100850.00;;;8.28;97.32
9335;BME280;4706;41.844;26.082;2023-01-16T04:17:05;100848.66;;;8.16;98.32
9335;BME280;4706;41.844;26.082;2023-01-16T04:19:32;100846.75;;;8.11;98.42
9335;BME280;4706;41.844;26.082;2023-01-16T04:21:59;100833.63;;;7.93;99.06
9335;BME280;4706;41.844;26.082;2023-01-16T04:24:29;100847.34;;;7.98;99.59
9335;BME280;4706;41.844;26.082;2023-01-16T04:26:55;100844.06;;;7.91;100.00
9335;BME280;4706;41.844;26.082;2023-01-16T04:29:20;100848.44;;;7.92;100.00
9335;BME280;4706;41.844;26.082;2023-01-16T04:31:46;100845.94;;;8.00;99.13
9335;BME280;4706;41.844;26.082;2023-01-16T04:34:11;100842.16;;;7.86;99.77
9335;BME280;4706;41.844;26.082;2023-01-16T04:36:37;100835.28;;;7.89;100.00
9335;BME280;4706;41.844;26.082;2023-01-16T04:39:02;100824.84;;;8.01;99.20
9335;BME280;4706;41.844;26.082;2023-01-16T04:41:28;100823.75;;;7.97;98.96
9335;BME280;4706;41.844;26.082;2023-01-16T04:44:07;100831.66;;;8.19;97.63
9335;BME280;4706;41.844;26.082;2023-01-16T04:46:34;100824.03;;;8.00;99.00
9335;BME280;4706;41.844;26.082;2023-01-16T04:49:00;100820.47;;;8.00;98.88
9335;BME280;4706;41.844;26.082;2023-01-16T04:51:25;100824.06;;;7.90;99.75
9335;BME280;4706;41.844;26.082;2023-01-16T04:53:52;100819.69;;;7.84;100.00
9335;BME280;4706;41.844;26.082;2023-01-16T04:56:17;100824.06;;;7.90;100.00
9335;BME280;4706;41.844;26.082;2023-01-16T04:58:43;100823.22;;;8.05;99.19
9335;BME280;4706;41.844;26.082;2023-01-16T05:01:08;100822.09;;;8.01;99.43
9335;BME280;4706;41.844;26.082;2023-01-16T05:03:34;100825.41;;;7.93;100.00
9335;BME280;4706;41.844;26.082;2023-01-16T05:05:59;100822.41;;;7.89;100.00
9335;BME280;4706;41.844;26.082;2023-01-16T05:08:25;100814.75;;;7.91;100.00
9335;BME280;4706;41.844;26.082;2023-01-16T05:10:53;100808.72;;;7.89;100.00
9335;BME280;4706;41.844;26.082;2023-01-16T05:13:19;100815.28;;;8.09;100.00
9335;BME280;4706;41.844;26.082;2023-01-16T05:15:45;100807.25;;;8.27;98.62
9335;BME280;4706;41.844;26.082;2023-01-16T05:18:12;100806.19;;;8.18;98.98
9335;BME280;4706;41.844;26.082;2023-01-16T05:20:38;100820.16;;;8.12;99.27
9335;BME280;4706;41.844;26.082;2023-01-16T05:23:04;100805.41;;;8.13;99.10
9335;BME280;4706;41.844;26.082;2023-01-16T05:25:29;100802.06;;;8.21;98.85
9335;BME280;4706;41.844;26.082;2023-01-16T05:27:55;100800.97;;;8.22;98.44
9335;BME280;4706;41.844;26.082;2023-01-16T05:30:20;100807.00;;;8.24;98.48
9335;BME280;4706;41.844;26.082;2023-01-16T05:32:46;100796.59;;;8.16;98.54
9335;BME280;4706;41.844;26.082;2023-01-16T05:35:12;100804.00;;;8.15;99.04
9335;BME280;4706;41.844;26.082;2023-01-16T05:37:38;100812.22;;;8.20;98.54
9335;BME280;4706;41.844;26.082;2023-01-16T05:40:04;100800.94;;;8.27;98.07
9335;BME280;4706;41.844;26.082;2023-01-16T05:42:29;100809.72;;;8.39;97.77
9335;BME280;4706;41.844;26.082;2023-01-16T05:44:55;100814.91;;;8.36;97.98
9335;BME280;4706;41.844;26.082;2023-01-16T05:47:20;100810.50;;;8.35;98.50
9335;BME280;4706;41.844;26.082;2023-01-16T05:49:46;100814.09;;;8.40;97.77
9335;BME280;4706;41.844;26.082;2023-01-16T05:52:13;100822.31;;;8.35;97.92
9335;BME280;4706;41.844;26.082;2023-01-16T05:54:38;100815.47;;;8.33;97.04
9335;BME280;4706;41.844;26.082;2023-01-16T05:57:04;100814.09;;;8.40;96.98
9335;BME280;4706;41.844;26.082;2023-01-16T05:59:29;100807.75;;;8.45;96.99
9335;BME280;4706;41.844;26.082;2023-01-16T06:01:55;100811.88;;;8.42;97.68
9335;BME280;4706;41.844;26.082;2023-01-16T06:04:23;100808.31;;;8.37;97.82
9335;BME280;4706;41.844;26.082;2023-01-16T06:06:48;100808.88;;;8.34;98.74
9335;BME280;4706;41.844;26.082;2023-01-16T06:09:14;100804.75;;;8.36;98.61
9335;BME280;4706;41.844;26.082;2023-01-16T06:11:40;100797.34;;;8.42;97.70
9335;BME280;4706;41.844;26.082;2023-01-16T06:14:05;100800.91;;;8.42;97.49
9335;BME280;4706;41.844;26.082;2023-01-16T06:16:31;100797.91;;;8.34;97.88
9335;BME280;4706;41.844;26.082;2023-01-16T06:18:57;100797.94;;;8.39;98.01
9335;BME280;4706;41.844;26.082;2023-01-16T06:21:23;100793.22;;;8.44;96.96
9335;BME280;4706;41.844;26.082;2023-01-16T06:23:48;100799.78;;;8.48;97.06
9335;BME280;4706;41.844;26.082;2023-01-16T06:26:14;100791.06;;;8.41;97.30
9335;BME280;4706;41.844;26.082;2023-01-16T06:28:39;100794.59;;;8.47;97.06
9335;BME280;4706;41.844;26.082;2023-01-16T06:31:06;100793.78;;;8.46;95.98
9335;BME280;4706;41.844;26.082;2023-01-16T06:33:31;100786.66;;;8.45;95.82
9335;BME280;4706;41.844;26.082;2023-01-16T06:35:57;100776.00;;;8.39;94.97
9335;BME280;4706;41.844;26.082;2023-01-16T06:38:23;100782.78;;;8.51;94.14
9335;BME280;4706;41.844;26.082;2023-01-16T06:40:48;100782.84;;;8.31;95.73
9335;BME280;4706;41.844;26.082;2023-01-16T06:43:14;100784.22;;;8.23;96.39
9335;BME280;4706;41.844;26.082;2023-01-16T06:45:42;100771.19;;;8.05;97.87
9335;BME280;4706;41.844;26.082;2023-01-16T06:48:09;100787.31;;;8.07;98.59
9335;BME280;4706;41.844;26.082;2023-01-16T06:50:34;100784.56;;;8.12;99.01
9335;BME280;4706;41.844;26.082;2023-01-16T06:53:00;100784.22;;;8.23;99.03
9335;BME280;4706;41.844;26.082;2023-01-16T06:55:26;100778.72;;;8.34;98.98
9335;BME280;4706;41.844;26.082;2023-01-16T06:57:51;100774.91;;;8.40;98.82
9335;BME280;4706;41.844;26.082;2023-01-16T07:00:17;100772.59;;;8.57;98.31
9335;BME280;4706;41.844;26.082;2023-01-16T07:02:42;100766.31;;;8.57;98.31
9335;BME280;4706;41.844;26.082;2023-01-16T07:05:09;100766.81;;;8.64;97.79
9335;BME280;4706;41.844;26.082;2023-01-16T07:07:35;100770.34;;;8.69;97.53
9335;BME280;4706;41.844;26.082;2023-01-16T07:10:02;100763.16;;;8.79;97.22
9335;BME280;4706;41.844;26.082;2023-01-16T07:12:27;100762.34;;;8.78;97.49
9335;BME280;4706;41.844;26.082;2023-01-16T07:14:53;100776.25;;;8.87;96.67
9335;BME280;4706;41.844;26.082;2023-01-16T07:17:37;100777.06;;;8.92;95.98
9335;BME280;4706;41.844;26.082;2023-01-16T07:20:21;100774.47;;;9.06;94.89
9335;BME280;4706;41.844;26.082;2023-01-16T07:23:18;100766.84;;;9.03;96.57
9335;BME280;4706;41.844;26.082;2023-01-16T07:25:45;100762.38;;;9.12;97.39
9335;BME280;4706;41.844;26.082;2023-01-16T07:28:11;100752.44;;;9.21;95.23
9335;BME280;4706;41.844;26.082;2023-01-16T07:30:37;100754.56;;;9.30;93.12
9335;BME280;4706;41.844;26.082;2023-01-16T07:33:03;100758.94;;;9.31;91.41
9335;BME280;4706;41.844;26.082;2023-01-16T07:35:28;100746.97;;;9.16;92.25
9335;BME280;4706;41.844;26.082;2023-01-16T07:37:54;100757.69;;;9.13;92.13
9335;BME280;4706;41.844;26.082;2023-01-16T07:40:23;100756.44;;;9.00;92.65
9335;BME280;4706;41.844;26.082;2023-01-16T07:42:50;100754.50;;;9.00;92.30
9335;BME280;4706;41.844;26.082;2023-01-16T07:45:16;100745.16;;;9.02;92.49
9335;BME280;4706;41.844;26.082;2023-01-16T07:47:42;100739.22;;;8.89;93.94
9335;BME280;4706;41.844;26.082;2023-01-16T07:50:08;100728.88;;;8.81;95.41
9335;BME280;4706;41.844;26.082;2023-01-16T07:52:33;100730.53;;;8.77;96.45
9335;BME280;4706;41.844;26.082;2023-01-16T07:54:59;100720.66;;;8.81;95.58
9335;BME280;4706;41.844;26.082;2023-01-16T07:57:24;100729.06;;;8.90;96.05
9335;BME280;4706;41.844;26.082;2023-01-16T07:59:50;100724.50;;;8.80;97.17
9335;BME280;4706;41.844;26.082;2023-01-16T08:02:16;100714.72;;;8.64;97.80
9335;BME280;4706;41.844;26.082;2023-01-16T08:04:41;100709.78;;;8.66;99.08
9335;BME280;4706;41.844;26.082;2023-01-16T08:07:07;100704.16;;;8.42;100.00
9335;BME280;4706;41.844;26.082;2023-01-16T08:09:32;100703.03;;;8.48;99.48
9335;BME280;4706;41.844;26.082;2023-01-16T08:11:58;100706.63;;;8.43;100.00
9335;BME280;4706;41.844;26.082;2023-01-16T08:14:24;100709.94;;;8.40;100.00
9335;BME280;4706;41.844;26.082;2023-01-16T08:16:50;100706.34;;;8.45;100.00
9335;BME280;4706;41.844;26.082;2023-01-16T08:19:15;100708.00;;;8.36;100.00
9335;BME280;4706;41.844;26.082;2023-01-16T08:21:40;100700.81;;;8.55;100.00
9335;BME280;4706;41.844;26.082;2023-01-16T08:24:06;100707.94;;;8.51;100.00
9335;BME280;4706;41.844;26.082;2023-01-16T08:26:32;100686.63;;;8.43;100.00
9335;BME280;4706;41.844;26.082;2023-01-16T08:28:59;100691.56;;;8.41;100.00
9335;BME280;4706;41.844;26.082;2023-01-16T08:31:26;100696.03;;;8.71;100.00
9335;BME280;4706;41.844;26.082;2023-01-16T08:33:51;100684.56;;;8.98;100.00
9335;BME280;4706;41.844;26.082;2023-01-16T08:36:17;100681.34;;;9.20;98.95
9335;BME280;4706;41.844;26.082;2023-01-16T08:38:46;100677.97;;;9.28;97.86
9335;BME280;4706;41.844;26.082;2023-01-16T08:41:12;100682.56;;;9.38;97.93
9335;BME280;4706;41.844;26.082;2023-01-16T08:43:56;100673.84;;;9.55;96.05
9335;BME280;4706;41.844;26.082;2023-01-16T08:46:41;100684.53;;;9.32;95.93
9335;BME280;4706;41.844;26.082;2023-01-16T08:49:26;100678.19;;;9.61;98.13
9335;BME280;4706;41.844;26.082;2023-01-16T08:52:10;100676.38;;;9.99;94.68
9335;BME280;4706;41.844;26.082;2023-01-16T08:54:36;100672.81;;;9.98;93.24
9335;BME280;4706;41.844;26.082;2023-01-16T08:57:02;100664.56;;;9.98;94.06
9335;BME280;4706;41.844;26.082;2023-01-16T08:59:28;100651.03;;;9.83;93.74
9335;BME280;4706;41.844;26.082;2023-01-16T09:02:00;100652.13;;;9.82;95.33
9335;BME280;4706;41.844;26.082;2023-01-16T09:04:26;100645.69;;;9.92;95.08
9335;BME280;4706;41.844;26.082;2023-01-16T09:06:51;100639.97;;;10.07;93.87
9335;BME280;4706;41.844;26.082;2023-01-16T09:09:19;100640.06;;;10.21;92.22
9335;BME280;4706;41.844;26.082;2023-01-16T09:11:44;100628.44;;;10.29;93.29
9335;BME280;4706;41.844;26.082;2023-01-16T09:14:28;100619.13;;;10.44;92.30
9335;BME280;4706;41.844;26.082;2023-01-16T09:16:54;100620.41;;;10.52;91.27
9335;BME280;4706;41.844;26.082;2023-01-16T09:19:19;100618.59;;;10.80;91.78
9335;BME280;4706;41.844;26.082;2023-01-16T09:21:45;100613.75;;;10.72;89.87
9335;BME280;4706;41.844;26.082;2023-01-16T09:24:10;100615.22;;;10.50;91.47
9335;BME280;4706;41.844;26.082;2023-01-16T09:26:36;100613.56;;;10.30;92.04
9335;BME280;4706;41.844;26.082;2023-01-16T09:29:01;100608.44;;;10.24;93.24
9335;BME280;4706;41.844;26.082;2023-01-16T09:31:27;100598.94;;;10.35;94.06
9335;BME280;4706;41.844;26.082;2023-01-16T09:33:52;100578.72;;;10.26;93.34
9335;BME280;4706;41.844;26.082;2023-01-16T09:36:20;100586.97;;;10.44;92.47
9335;BME280;4706;41.844;26.082;2023-01-16T09:38:45;100578.13;;;10.48;92.23
9335;BME280;4706;41.844;26.082;2023-01-16T09:41:15;100580.50;;;10.68;92.47
9335;BME280;4706;41.844;26.082;2023-01-16T09:44:01;100579.03;;;10.76;90.75
9335;BME280;4706;41.844;26.082;2023-01-16T09:46:35;100569.94;;;10.75;90.98
9335;BME280;4706;41.844;26.082;2023-01-16T09:49:28;100560.91;;;10.88;89.92
9335;BME280;4706;41.844;26.082;2023-01-16T09:52:05;100557.66;;;11.00;89.25
9335;BME280;4706;41.844;26.082;2023-01-16T09:54:57;100544.34;;;11.21;87.83
9335;BME280;4706;41.844;26.082;2023-01-16T09:57:43;100543.09;;;11.41;87.15
9335;BME280;4706;41.844;26.082;2023-01-16T10:00:30;100531.97;;;11.60;85.67
9335;BME280;4706;41.844;26.082;2023-01-16T10:02:57;100521.88;;;11.55;86.13
9335;BME280;4706;41.844;26.082;2023-01-16T10:05:30;100519.44;;;11.40;87.15
9335;BME280;4706;41.844;26.082;2023-01-16T10:08:29;100507.78;;;11.43;87.18
9335;BME280;4706;41.844;26.082;2023-01-16T10:11:34;100505.84;;;11.57;87.71
9335;BME280;4706;41.844;26.082;2023-01-16T10:24:55;100495.47;;;11.77;89.70
9335;BME280;4706;41.844;26.082;2023-01-16T10:37:38;100482.41;;;11.82;88.81
9335;BME280;4706;41.844;26.082;2023-01-16T10:40:24;100457.22;;;11.75;91.06
9335;BME280;4706;41.844;26.082;2023-01-16T10:43:01;100471.94;;;11.71;89.62
9335;BME280;4706;41.844;26.082;2023-01-16T10:45:46;100456.09;;;11.90;90.35
9335;BME280;4706;41.844;26.082;2023-01-16T10:48:31;100454.94;;;11.91;90.27
9335;BME280;4706;41.844;26.082;2023-01-16T10:51:16;100448.25;;;12.06;90.37
9335;BME280;4706;41.844;26.082;2023-01-16T10:53:41;100439.41;;;12.18;89.10
9335;BME280;4706;41.844;26.082;2023-01-16T10:56:08;100446.38;;;12.15;89.23
9335;BME280;4706;41.844;26.082;2023-01-16T10:58:35;100431.94;;;12.18;89.70
9335;BME280;4706;41.844;26.082;2023-01-16T11:01:14;100426.31;;;12.23;88.42
9335;BME280;4706;41.844;26.082;2023-01-16T11:03:43;100428.66;;;12.38;89.13
9335;BME280;4706;41.844;26.082;2023-01-16T11:06:28;100417.31;;;12.40;89.27
9335;BME280;4706;41.844;26.082;2023-01-16T11:09:17;100423.28;;;12.33;88.52
9335;BME280;4706;41.844;26.082;2023-01-16T11:11:44;100420.81;;;12.23;89.19
9335;BME280;4706;41.844;26.082;2023-01-16T11:14:30;100410.22;;;12.17;90.19
9335;BME280;4706;41.844;26.082;2023-01-16T11:17:35;100400.59;;;12.36;90.12
9335;BME280;4706;41.844;26.082;2023-01-16T11:20:25;100382.56;;;12.30;90.26
9335;BME280;4706;41.844;26.082;2023-01-16T11:23:00;100393.47;;;12.44;89.77
9335;BME280;4706;41.844;26.082;2023-01-16T11:25:30;100385.53;;;12.43;90.43
9335;BME280;4706;41.844;26.082;2023-01-16T11:27:58;100385.34;;;12.39;90.33
9335;BME280;4706;41.844;26.082;2023-01-16T11:30:31;100376.38;;;12.33;87.78
9335;BME280;4706;41.844;26.082;2023-01-16T11:32:57;100371.06;;;12.37;88.58
9335;BME280;4706;41.844;26.082;2023-01-16T11:35:32;100370.41;;;12.40;88.86
9335;BME280;4706;41.844;26.082;2023-01-16T11:37:59;100380.63;;;12.31;87.79
9335;BME280;4706;41.844;26.082;2023-01-16T11:40:31;100379.25;;;12.20;88.75
9335;BME280;4706;41.844;26.082;2023-01-16T11:43:08;100382.06;;;12.28;86.39
9335;BME280;4706;41.844;26.082;2023-01-16T11:45:56;100370.13;;;12.42;81.22
9335;BME280;4706;41.844;26.082;2023-01-16T11:48:38;100376.47;;;12.51;78.54
9335;BME280;4706;41.844;26.082;2023-01-16T11:51:06;100372.72;;;12.47;82.77
9335;BME280;4706;41.844;26.082;2023-01-16T11:53:34;100371.56;;;12.39;86.17
9335;BME280;4706;41.844;26.082;2023-01-16T11:56:17;100372.94;;;12.19;86.97
9335;BME280;4706;41.844;26.082;2023-01-16T12:04:35;100362.53;;;11.85;90.92
9335;BME280;4706;41.844;26.082;2023-01-16T12:07:20;100350.44;;;11.81;91.98
9335;BME280;4706;41.844;26.082;2023-01-16T12:10:05;100341.84;;;11.74;91.71
9335;BME280;4706;41.844;26.082;2023-01-16T12:12:37;100347.38;;;11.82;92.19
9335;BME280;4706;41.844;26.082;2023-01-16T12:15:42;100339.25;;;11.77;88.71
9335;BME280;4706;41.844;26.082;2023-01-16T12:18:22;100339.81;;;11.88;87.62
9335;BME280;4706;41.844;26.082;2023-01-16T12:20:59;100347.16;;;11.93;88.30
9335;BME280;4706;41.844;26.082;2023-01-16T12:51:17;100312.31;;;12.36;86.08
9335;BME280;4706;41.844;26.082;2023-01-16T12:58:42;100327.47;;;12.48;83.89
9335;BME280;4706;41.844;26.082;2023-01-16T13:03:52;100321.75;;;12.35;85.79
9335;BME280;4706;41.844;26.082;2023-01-16T13:06:28;100318.63;;;12.28;84.71
9335;BME280;4706;41.844;26.082;2023-01-16T13:08:58;100325.09;;;12.24;85.26
9335;BME280;4706;41.844;26.082;2023-01-16T13:11:34;100317.97;;;12.23;83.88
9335;BME280;4706;41.844;26.082;2023-01-16T13:14:20;100315.03;;;12.19;79.28
9335;BME280;4706;41.844;26.082;2023-01-16T13:17:05;100308.38;;;12.20;82.09
9335;BME280;4706;41.844;26.082;2023-01-16T13:19:36;100308.72;;;12.19;80.32
9335;BME280;4706;41.844;26.082;2023-01-16T13:22:25;100299.94;;;12.17;81.98
9335;BME280;4706;41.844;26.082;2023-01-16T13:24:58;100301.78;;;12.30;80.22
9335;BME280;4706;41.844;26.082;2023-01-16T13:27:38;100298.69;;;12.31;77.03
9335;BME280;4706;41.844;26.082;2023-01-16T13:30:13;100296.81;;;12.49;77.68
9335;BME280;4706;41.844;26.082;2023-01-16T13:32:50;100290.50;;;12.57;77.18
9335;BME280;4706;41.844;26.082;2023-01-16T13:44:12;100298.13;;;12.60;76.08
9335;BME280;4706;41.844;26.082;2023-01-16T13:47:06;100290.66;;;12.61;76.65
9335;BME280;4706;41.844;26.082;2023-01-16T13:49:33;100289.66;;;12.48;75.88
9335;BME280;4706;41.844;26.082;2023-01-16T13:52:02;100274.41;;;12.42;77.04
9335;BME280;4706;41.844;26.082;2023-01-16T13:54:38;100289.34;;;12.50;77.58
9335;BME280;4706;41.844;26.082;2023-01-16T13:57:15;100287.22;;;12.47;82.17
9335;BME280;4706;41.844;26.082;2023-01-16T13:59:54;100290.91;;;12.33;81.94
9335;BME280;4706;41.844;26.082;2023-01-16T14:07:49;100287.13;;;12.21;84.09
9335;BME280;4706;41.844;26.082;2023-01-16T14:10:43;100282.41;;;12.12;83.68
9335;BME280;4706;41.844;26.082;2023-01-16T14:24:06;100284.94;;;12.00;80.29
9335;BME280;4706;41.844;26.082;2023-01-16T14:27:13;100273.56;;;11.93;80.69
9335;BME280;4706;41.844;26.082;2023-01-16T14:34:50;100257.09;;;11.79;85.69
9335;BME280;4706;41.844;26.082;2023-01-16T14:37:27;100262.75;;;11.74;86.50
9335;BME280;4706;41.844;26.082;2023-01-16T14:45:29;100267.56;;;11.68;88.68
9335;BME280;4706;41.844;26.082;2023-01-16T14:57:12;100255.75;;;11.46;89.03
9335;BME280;4706;41.844;26.082;2023-01-16T15:00:19;100254.63;;;11.47;90.62
9335;BME280;4706;41.844;26.082;2023-01-16T15:03:14;100258.94;;;11.39;91.36
9335;BME280;4706;41.844;26.082;2023-01-16T15:05:57;100250.63;;;11.30;90.83
9335;BME280;4706;41.844;26.082;2023-01-16T15:08:31;100259.13;;;11.20;89.25
9335;BME280;4706;41.844;26.082;2023-01-16T15:11:04;100258.75;;;11.13;88.91
9335;BME280;4706;41.844;26.082;2023-01-16T15:14:09;100250.22;;;11.14;89.49
9335;BME280;4706;41.844;26.082;2023-01-16T15:17:39;100264.91;;;11.10;88.83
9335;BME280;4706;41.844;26.082;2023-01-16T15:20:28;100268.75;;;11.09;88.58
9335;BME280;4706;41.844;26.082;2023-01-16T15:23:25;100245.06;;;10.99;88.35
9335;BME280;4706;41.844;26.082;2023-01-16T15:26:05;100254.63;;;11.02;88.39
9335;BME280;4706;41.844;26.082;2023-01-16T15:31:38;100253.13;;;10.96;89.00
9335;BME280;4706;41.844;26.082;2023-01-16T15:34:18;100260.25;;;10.97;89.52
9335;BME280;4706;41.844;26.082;2023-01-16T15:36:46;100275.97;;;10.96;90.29
9335;BME280;4706;41.844;26.082;2023-01-16T15:41:54;100274.25;;;10.86;91.16
9335;BME280;4706;41.844;26.082;2023-01-16T15:44:41;100283.94;;;10.84;91.92
9335;BME280;4706;41.844;26.082;2023-01-16T15:52:37;100270.09;;;10.75;91.86
9335;BME280;4706;41.844;26.082;2023-01-16T15:57:47;100267.84;;;10.77;92.25
9335;BME280;4706;41.844;26.082;2023-01-16T16:00:35;100261.03;;;10.75;92.64
9335;BME280;4706;41.844;26.082;2023-01-16T16:03:15;100269.00;;;10.76;92.82
9335;BME280;4706;41.844;26.082;2023-01-16T16:05:58;100251.56;;;10.67;92.64
9335;BME280;4706;41.844;26.082;2023-01-16T16:08:28;100260.34;;;10.69;93.04
9335;BME280;4706;41.844;26.082;2023-01-16T16:10:57;100250.16;;;10.69;93.10
9335;BME280;4706;41.844;26.082;2023-01-16T16:13:42;100253.31;;;10.63;93.73
9335;BME280;4706;41.844;26.082;2023-01-16T16:16:34;100263.09;;;10.55;94.65
9335;BME280;4706;41.844;26.082;2023-01-16T16:19:32;100260.69;;;10.54;95.10